sensor_id;sensor_type;location;lat;lon;timestamp;temperature;humidity
16441;DHT22;8330;-33.858;151.184;2023-08-20T00:02:14;18.50;99.90
16441;DHT22;8330;-33.858;151.184;2023-08-20T00:05:00;18.50;99.90
16441;DHT22;8330;-33.858;151.184;2023-08-20T00:07:34;18.60;99.90
16441;DHT22;8330;-33.858;151.184;2023-08-20T00:10:09;18.60;99.90
16441;DHT22;8330;-33.858;151.184;2023-08-20T00:12:40;18.50;99.90
16441;DHT22;8330;-33.858;151.184;2023-08-20T00:15:13;18.70;99.90
16441;DHT22;8330;-33.858;151.184;2023-08-20T00:17:44;18.70;99.90
16441;DHT22;8330;-33.858;151.184;2023-08-20T00:20:17;18.80;99.90
16441;DHT22;8330;-33.858;151.184;2023-08-20T00:22:50;18.80;99.90
16441;DHT22;8330;-33.858;151.184;2023-08-20T00:25:33;19.00;99.90
16441;DHT22;8330;-33.858;151.184;2023-08-20T00:28:06;19.10;99.90
16441;DHT22;8330;-33.858;151.184;2023-08-20T00:30:39;19.10;99.90
16441;DHT22;8330;-33.858;151.184;2023-08-20T00:33:12;19.10;99.90
16441;DHT22;8330;-33.858;151.184;2023-08-20T00:35:43;19.20;99.90
16441;DHT22;8330;-33.858;151.184;2023-08-20T00:38:15;19.30;99.90
16441;DHT22;8330;-33.858;151.184;2023-08-20T00:40:56;19.30;99.90
16441;DHT22;8330;-33.858;151.184;2023-08-20T00:43:29;19.30;99.90
16441;DHT22;8330;-33.858;151.184;2023-08-20T00:46:01;19.40;99.90
16441;DHT22;8330;-33.858;151.184;2023-08-20T00:48:38;19.60;99.90
16441;DHT22;8330;-33.858;151.184;2023-08-20T00:51:23;19.70;99.90
16441;DHT22;8330;-33.858;151.184;2023-08-20T00:53:56;19.80;99.90
16441;DHT22;8330;-33.858;151.184;2023-08-20T00:56:34;19.90;99.90
16441;DHT22;8330;-33.858;151.184;2023-08-20T00:59:17;19.90;99.90
16441;DHT22;8330;-33.858;151.184;2023-08-20T01:01:49;20.10;99.90
16441;DHT22;8330;-33.858;151.184;2023-08-20T01:04:22;20.20;99.90
16441;DHT22;8330;-33.858;151.184;2023-08-20T01:07:02;20.20;99.90
16441;DHT22;8330;-33.858;151.184;2023-08-20T01:09:46;20.30;99.90
16441;DHT22;8330;-33.858;151.184;2023-08-20T01:12:39;20.30;99.90
16441;DHT22;8330;-33.858;151.184;2023-08-20T01:15:22;20.40;99.90
16441;DHT22;8330;-33.858;151.184;2023-08-20T01:17:53;20.40;99.90
16441;DHT22;8330;-33.858;151.184;2023-08-20T01:20:27;20.40;99.90
16441;DHT22;8330;-33.858;151.184;2023-08-20T01:23:29;20.50;99.90
16441;DHT22;8330;-33.858;151.184;2023-08-20T01:26:16;20.40;99.90
16441;DHT22;8330;-33.858;151.184;2023-08-20T01:28:52;20.50;99.90
16441;DHT22;8330;-33.858;151.184;2023-08-20T01:31:24;20.60;99.90
16441;DHT22;8330;-33.858;151.184;2023-08-20T01:33:57;20.60;99.90
16441;DHT22;8330;-33.858;151.184;2023-08-20T01:36:28;20.60;99.90
16441;DHT22;8330;-33.858;151.184;2023-08-20T01:39:01;20.50;99.90
16441;DHT22;8330;-33.858;151.184;2023-08-20T01:41:33;20.60;99.90
16441;DHT22;8330;-33.858;151.184;2023-08-20T01:44:07;20.60;99.90
16441;DHT22;8330;-33.858;151.184;2023-08-20T01:46:39;20.80;99.90
16441;DHT22;8330;-33.858;151.184;2023-08-20T01:49:10;20.80;99.90
16441;DHT22;8330;-33.858;151.184;2023-08-20T01:51:40;20.80;99.90
16441;DHT22;8330;-33.858;151.184;2023-08-20T01:54:11;20.80;99.90
16441;DHT22;8330;-33.858;151.184;2023-08-20T01:56:42;20.80;99.90
16441;DHT22;8330;-33.858;151.184;2023-08-20T01:59:16;20.80;99.90
16441;DHT22;8330;-33.858;151.184;2023-08-20T02:01:47;20.80;99.90
16441;DHT22;8330;-33.858;151.184;2023-08-20T02:04:19;20.70;99.90
16441;DHT22;8330;-33.858;151.184;2023-08-20T02:06:50;20.70;99.90
16441;DHT22;8330;-33.858;151.184;2023-08-20T02:09:21;20.80;99.90
16441;DHT22;8330;-33.858;151.184;2023-08-20T02:11:54;20.90;99.90
16441;DHT22;8330;-33.858;151.184;2023-08-20T02:14:28;21.00;99.10
16441;DHT22;8330;-33.858;151.184;2023-08-20T02:17:02;21.10;97.80
16441;DHT22;8330;-33.858;151.184;2023-08-20T02:19:34;21.20;96.90
16441;DHT22;8330;-33.858;151.184;2023-08-20T02:22:05;21.30;97.00
16441;DHT22;8330;-33.858;151.184;2023-08-20T02:24:36;21.40;96.50
16441;DHT22;8330;-33.858;151.184;2023-08-20T02:27:10;21.50;95.50
16441;DHT22;8330;-33.858;151.184;2023-08-20T02:29:44;21.50;95.50
16441;DHT22;8330;-33.858;151.184;2023-08-20T02:32:15;21.60;95.30
16441;DHT22;8330;-33.858;151.184;2023-08-20T02:34:50;21.70;95.50
16441;DHT22;8330;-33.858;151.184;2023-08-20T02:37:21;21.80;94.80
16441;DHT22;8330;-33.858;151.184;2023-08-20T02:39:52;21.70;93.50
16441;DHT22;8330;-33.858;151.184;2023-08-20T02:42:23;21.70;93.20
16441;DHT22;8330;-33.858;151.184;2023-08-20T02:44:56;21.90;92.70
16441;DHT22;8330;-33.858;151.184;2023-08-20T02:47:27;21.90;91.50
16441;DHT22;8330;-33.858;151.184;2023-08-20T02:49:58;22.00;92.00
16441;DHT22;8330;-33.858;151.184;2023-08-20T02:52:29;21.90;90.90
16441;DHT22;8330;-33.858;151.184;2023-08-20T02:55:00;21.80;90.60
16441;DHT22;8330;-33.858;151.184;2023-08-20T02:57:32;21.80;90.10
16441;DHT22;8330;-33.858;151.184;2023-08-20T03:00:06;21.80;89.70
16441;DHT22;8330;-33.858;151.184;2023-08-20T03:02:39;21.90;91.00
16441;DHT22;8330;-33.858;151.184;2023-08-20T03:05:10;22.00;90.80
16441;DHT22;8330;-33.858;151.184;2023-08-20T03:07:41;22.10;89.40
16441;DHT22;8330;-33.858;151.184;2023-08-20T03:10:12;22.10;88.70
16441;DHT22;8330;-33.858;151.184;2023-08-20T03:12:43;22.30;88.40
16441;DHT22;8330;-33.858;151.184;2023-08-20T03:15:16;22.30;85.30
16441;DHT22;8330;-33.858;151.184;2023-08-20T03:17:48;22.20;84.90
16441;DHT22;8330;-33.858;151.184;2023-08-20T03:20:19;22.20;87.00
16441;DHT22;8330;-33.858;151.184;2023-08-20T03:22:50;22.30;88.00
16441;DHT22;8330;-33.858;151.184;2023-08-20T03:25:21;22.30;85.80
16441;DHT22;8330;-33.858;151.184;2023-08-20T03:27:53;22.40;86.60
16441;DHT22;8330;-33.858;151.184;2023-08-20T03:30:28;22.40;86.40
16441;DHT22;8330;-33.858;151.184;2023-08-20T03:32:59;22.50;84.10
16441;DHT22;8330;-33.858;151.184;2023-08-20T03:35:30;22.50;85.80
16441;DHT22;8330;-33.858;151.184;2023-08-20T03:38:02;22.50;86.40
16441;DHT22;8330;-33.858;151.184;2023-08-20T03:40:33;22.60;88.00
16441;DHT22;8330;-33.858;151.184;2023-08-20T03:43:04;22.70;88.40
16441;DHT22;8330;-33.858;151.184;2023-08-20T03:45:37;22.60;88.90
16441;DHT22;8330;-33.858;151.184;2023-08-20T03:48:10;22.60;89.00
16441;DHT22;8330;-33.858;151.184;2023-08-20T03:50:41;22.60;87.30
16441;DHT22;8330;-33.858;151.184;2023-08-20T03:53:12;22.50;87.80
16441;DHT22;8330;-33.858;151.184;2023-08-20T03:55:47;22.40;84.70
16441;DHT22;8330;-33.858;151.184;2023-08-20T03:58:18;22.30;84.30
16441;DHT22;8330;-33.858;151.184;2023-08-20T04:00:51;22.20;84.20
16441;DHT22;8330;-33.858;151.184;2023-08-20T04:03:23;22.10;85.60
16441;DHT22;8330;-33.858;151.184;2023-08-20T04:05:54;22.00;86.10
16441;DHT22;8330;-33.858;151.184;2023-08-20T04:08:25;21.90;88.10
16441;DHT22;8330;-33.858;151.184;2023-08-20T04:10:56;22.00;86.90
16441;DHT22;8330;-33.858;151.184;2023-08-20T04:13:27;21.70;87.60
16441;DHT22;8330;-33.858;151.184;2023-08-20T04:16:01;21.60;89.60
16441;DHT22;8330;-33.858;151.184;2023-08-20T04:18:32;21.60;89.00
16441;DHT22;8330;-33.858;151.184;2023-08-20T04:21:04;21.70;88.30
16441;DHT22;8330;-33.858;151.184;2023-08-20T04:23:38;21.70;84.90
16441;DHT22;8330;-33.858;151.184;2023-08-20T04:26:09;21.70;82.20
16441;DHT22;8330;-33.858;151.184;2023-08-20T04:28:40;21.60;82.30
16441;DHT22;8330;-33.858;151.184;2023-08-20T04:31:14;21.50;81.80
16441;DHT22;8330;-33.858;151.184;2023-08-20T04:33:46;21.40;82.50
16441;DHT22;8330;-33.858;151.184;2023-08-20T04:36:17;21.40;83.60
16441;DHT22;8330;-33.858;151.184;2023-08-20T04:38:48;21.30;82.90
16441;DHT22;8330;-33.858;151.184;2023-08-20T04:41:19;21.20;83.70
16441;DHT22;8330;-33.858;151.184;2023-08-20T04:43:51;21.20;86.40
16441;DHT22;8330;-33.858;151.184;2023-08-20T04:46:25;21.20;85.90
16441;DHT22;8330;-33.858;151.184;2023-08-20T04:48:56;21.30;85.70
16441;DHT22;8330;-33.858;151.184;2023-08-20T04:51:27;21.30;85.30
16441;DHT22;8330;-33.858;151.184;2023-08-20T04:53:58;21.20;87.30
16441;DHT22;8330;-33.858;151.184;2023-08-20T04:56:29;21.20;86.10
16441;DHT22;8330;-33.858;151.184;2023-08-20T04:59:00;21.20;87.10
16441;DHT22;8330;-33.858;151.184;2023-08-20T05:01:34;21.20;87.30
16441;DHT22;8330;-33.858;151.184;2023-08-20T05:04:05;21.20;87.10
16441;DHT22;8330;-33.858;151.184;2023-08-20T05:06:37;21.10;87.30
16441;DHT22;8330;-33.858;151.184;2023-08-20T05:09:08;21.00;89.00
16441;DHT22;8330;-33.858;151.184;2023-08-20T05:11:39;21.00;90.10
16441;DHT22;8330;-33.858;151.184;2023-08-20T05:14:10;20.90;91.00
16441;DHT22;8330;-33.858;151.184;2023-08-20T05:16:44;20.90;90.40
16441;DHT22;8330;-33.858;151.184;2023-08-20T05:19:15;21.00;90.80
16441;DHT22;8330;-33.858;151.184;2023-08-20T05:21:46;21.00;90.60
16441;DHT22;8330;-33.858;151.184;2023-08-20T05:24:17;20.90;90.70
16441;DHT22;8330;-33.858;151.184;2023-08-20T05:26:50;20.80;90.80
16441;DHT22;8330;-33.858;151.184;2023-08-20T05:29:33;20.90;91.30
16441;DHT22;8330;-33.858;151.184;2023-08-20T05:32:07;20.90;91.00
16441;DHT22;8330;-33.858;151.184;2023-08-20T05:34:38;20.90;91.50
16441;DHT22;8330;-33.858;151.184;2023-08-20T05:37:11;20.80;92.60
16441;DHT22;8330;-33.858;151.184;2023-08-20T05:39:43;20.90;93.30
16441;DHT22;8330;-33.858;151.184;2023-08-20T05:42:14;20.90;93.20
16441;DHT22;8330;-33.858;151.184;2023-08-20T05:44:45;21.00;93.20
16441;DHT22;8330;-33.858;151.184;2023-08-20T05:47:18;20.90;92.20
16441;DHT22;8330;-33.858;151.184;2023-08-20T05:50:56;21.00;92.40
16441;DHT22;8330;-33.858;151.184;2023-08-20T05:53:27;20.90;92.10
16441;DHT22;8330;-33.858;151.184;2023-08-20T05:55:59;20.90;91.00
16441;DHT22;8330;-33.858;151.184;2023-08-20T05:58:30;21.00;91.40
16441;DHT22;8330;-33.858;151.184;2023-08-20T06:01:02;20.90;91.30
16441;DHT22;8330;-33.858;151.184;2023-08-20T06:03:34;21.00;91.50
16441;DHT22;8330;-33.858;151.184;2023-08-20T06:06:05;21.00;92.00
16441;DHT22;8330;-33.858;151.184;2023-08-20T06:08:36;21.10;91.30
16441;DHT22;8330;-33.858;151.184;2023-08-20T06:11:07;21.20;91.40
16441;DHT22;8330;-33.858;151.184;2023-08-20T06:13:38;21.10;90.90
16441;DHT22;8330;-33.858;151.184;2023-08-20T06:16:12;21.00;90.30
16441;DHT22;8330;-33.858;151.184;2023-08-20T06:18:46;21.00;90.50
16441;DHT22;8330;-33.858;151.184;2023-08-20T06:21:16;21.20;91.00
16441;DHT22;8330;-33.858;151.184;2023-08-20T06:23:47;21.20;90.70
16441;DHT22;8330;-33.858;151.184;2023-08-20T06:26:18;21.30;90.40
16441;DHT22;8330;-33.858;151.184;2023-08-20T06:28:50;21.30;91.20
16441;DHT22;8330;-33.858;151.184;2023-08-20T06:31:21;21.20;89.90
16441;DHT22;8330;-33.858;151.184;2023-08-20T06:33:55;21.40;89.60
16441;DHT22;8330;-33.858;151.184;2023-08-20T06:36:26;21.40;87.80
16441;DHT22;8330;-33.858;151.184;2023-08-20T06:38:57;21.50;88.80
16441;DHT22;8330;-33.858;151.184;2023-08-20T06:41:27;21.60;86.60
16441;DHT22;8330;-33.858;151.184;2023-08-20T06:43:59;21.50;87.60
16441;DHT22;8330;-33.858;151.184;2023-08-20T06:46:30;21.50;88.60
16441;DHT22;8330;-33.858;151.184;2023-08-20T06:49:03;21.50;89.50
16441;DHT22;8330;-33.858;151.184;2023-08-20T06:51:34;21.40;89.70
16441;DHT22;8330;-33.858;151.184;2023-08-20T06:54:06;21.20;90.00
16441;DHT22;8330;-33.858;151.184;2023-08-20T06:56:37;21.00;91.10
16441;DHT22;8330;-33.858;151.184;2023-08-20T06:59:08;20.80;91.60
16441;DHT22;8330;-33.858;151.184;2023-08-20T07:01:42;20.60;92.30
16441;DHT22;8330;-33.858;151.184;2023-08-20T07:04:15;20.50;93.00
16441;DHT22;8330;-33.858;151.184;2023-08-20T07:06:46;20.20;93.90
16441;DHT22;8330;-33.858;151.184;2023-08-20T07:09:16;20.00;95.10
16441;DHT22;8330;-33.858;151.184;2023-08-20T07:11:47;19.90;95.70
16441;DHT22;8330;-33.858;151.184;2023-08-20T07:14:18;19.70;96.40
16441;DHT22;8330;-33.858;151.184;2023-08-20T07:16:49;19.60;97.60
16441;DHT22;8330;-33.858;151.184;2023-08-20T07:19:21;19.60;98.20
16441;DHT22;8330;-33.858;151.184;2023-08-20T07:21:52;19.40;99.40
16441;DHT22;8330;-33.858;151.184;2023-08-20T07:24:23;19.40;99.90
16441;DHT22;8330;-33.858;151.184;2023-08-20T07:26:57;19.30;99.90
16441;DHT22;8330;-33.858;151.184;2023-08-20T07:29:30;19.30;99.90
16441;DHT22;8330;-33.858;151.184;2023-08-20T07:32:00;19.20;99.90
16441;DHT22;8330;-33.858;151.184;2023-08-20T07:34:33;19.20;99.90
16441;DHT22;8330;-33.858;151.184;2023-08-20T07:37:04;19.10;99.90
16441;DHT22;8330;-33.858;151.184;2023-08-20T07:39:35;19.10;99.90
16441;DHT22;8330;-33.858;151.184;2023-08-20T07:42:06;19.00;99.90
16441;DHT22;8330;-33.858;151.184;2023-08-20T07:44:37;19.00;99.90
16441;DHT22;8330;-33.858;151.184;2023-08-20T07:47:08;18.90;99.90
16441;DHT22;8330;-33.858;151.184;2023-08-20T07:49:41;18.90;99.90
16441;DHT22;8330;-33.858;151.184;2023-08-20T07:52:12;18.90;99.90
16441;DHT22;8330;-33.858;151.184;2023-08-20T07:54:43;18.80;99.90
16441;DHT22;8330;-33.858;151.184;2023-08-20T07:57:13;18.70;99.90
16441;DHT22;8330;-33.858;151.184;2023-08-20T07:59:44;18.80;99.90
16441;DHT22;8330;-33.858;151.184;2023-08-20T08:02:15;18.70;99.90
16441;DHT22;8330;-33.858;151.184;2023-08-20T08:04:48;18.70;99.90
16441;DHT22;8330;-33.858;151.184;2023-08-20T08:07:19;18.70;99.90
16441;DHT22;8330;-33.858;151.184;2023-08-20T08:09:49;18.60;99.90
16441;DHT22;8330;-33.858;151.184;2023-08-20T08:12:20;18.60;99.90
16441;DHT22;8330;-33.858;151.184;2023-08-20T08:14:51;18.50;99.90
16441;DHT22;8330;-33.858;151.184;2023-08-20T08:17:22;18.60;99.90
16441;DHT22;8330;-33.858;151.184;2023-08-20T08:19:55;18.60;99.90
16441;DHT22;8330;-33.858;151.184;2023-08-20T08:22:29;18.60;99.90
16441;DHT22;8330;-33.858;151.184;2023-08-20T08:25:54;18.60;99.90
16441;DHT22;8330;-33.858;151.184;2023-08-20T08:28:27;18.60;99.90
16441;DHT22;8330;-33.858;151.184;2023-08-20T08:30:58;18.50;99.90
16441;DHT22;8330;-33.858;151.184;2023-08-20T08:33:29;18.50;99.90
16441;DHT22;8330;-33.858;151.184;2023-08-20T08:36:02;18.50;99.90
16441;DHT22;8330;-33.858;151.184;2023-08-20T08:38:33;18.50;99.90
16441;DHT22;8330;-33.858;151.184;2023-08-20T08:41:04;18.50;99.90
16441;DHT22;8330;-33.858;151.184;2023-08-20T08:43:40;18.40;99.90
16441;DHT22;8330;-33.858;151.184;2023-08-20T08:46:14;18.40;99.90
16441;DHT22;8330;-33.858;151.184;2023-08-20T08:48:45;18.40;99.90
16441;DHT22;8330;-33.858;151.184;2023-08-20T08:51:19;18.40;99.90
16441;DHT22;8330;-33.858;151.184;2023-08-20T08:53:50;18.30;99.90
16441;DHT22;8330;-33.858;151.184;2023-08-20T08:56:22;18.30;99.90
16441;DHT22;8330;-33.858;151.184;2023-08-20T08:58:53;18.30;99.90
16441;DHT22;8330;-33.858;151.184;2023-08-20T09:01:24;18.20;99.90
16441;DHT22;8330;-33.858;151.184;2023-08-20T09:03:55;18.20;99.90
16441;DHT22;8330;-33.858;151.184;2023-08-20T09:06:33;18.20;99.90
16441;DHT22;8330;-33.858;151.184;2023-08-20T09:09:14;18.20;99.90
16441;DHT22;8330;-33.858;151.184;2023-08-20T09:11:45;18.20;99.90
16441;DHT22;8330;-33.858;151.184;2023-08-20T09:14:29;18.10;99.90
16441;DHT22;8330;-33.858;151.184;2023-08-20T09:17:00;18.10;99.90
16441;DHT22;8330;-33.858;151.184;2023-08-20T09:19:35;18.10;99.90
16441;DHT22;8330;-33.858;151.184;2023-08-20T09:22:13;18.10;99.90
16441;DHT22;8330;-33.858;151.184;2023-08-20T09:24:51;18.10;99.90
16441;DHT22;8330;-33.858;151.184;2023-08-20T09:27:23;18.10;99.90
16441;DHT22;8330;-33.858;151.184;2023-08-20T09:29:55;18.00;99.90
16441;DHT22;8330;-33.858;151.184;2023-08-20T09:32:27;18.00;99.90
16441;DHT22;8330;-33.858;151.184;2023-08-20T09:34:58;18.00;99.90
16441;DHT22;8330;-33.858;151.184;2023-08-20T09:37:30;18.00;99.90
16441;DHT22;8330;-33.858;151.184;2023-08-20T09:40:02;18.00;99.90
16441;DHT22;8330;-33.858;151.184;2023-08-20T09:42:34;18.00;99.90
16441;DHT22;8330;-33.858;151.184;2023-08-20T09:45:06;18.00;99.90
16441;DHT22;8330;-33.858;151.184;2023-08-20T09:47:37;18.00;99.90
16441;DHT22;8330;-33.858;151.184;2023-08-20T09:50:11;18.00;99.90
16441;DHT22;8330;-33.858;151.184;2023-08-20T09:52:50;18.00;99.90
16441;DHT22;8330;-33.858;151.184;2023-08-20T09:55:30;18.00;99.90
16441;DHT22;8330;-33.858;151.184;2023-08-20T09:58:04;18.00;99.90
16441;DHT22;8330;-33.858;151.184;2023-08-20T10:00:36;18.00;99.90
16441;DHT22;8330;-33.858;151.184;2023-08-20T10:03:07;18.00;99.90
16441;DHT22;8330;-33.858;151.184;2023-08-20T10:05:38;18.00;99.90
16441;DHT22;8330;-33.858;151.184;2023-08-20T10:08:11;18.00;99.90
16441;DHT22;8330;-33.858;151.184;2023-08-20T10:10:42;18.00;99.90
16441;DHT22;8330;-33.858;151.184;2023-08-20T10:13:14;18.00;99.90
16441;DHT22;8330;-33.858;151.184;2023-08-20T10:15:46;18.00;99.90
16441;DHT22;8330;-33.858;151.184;2023-08-20T10:18:19;18.00;99.90
16441;DHT22;8330;-33.858;151.184;2023-08-20T10:20:51;17.90;99.90
16441;DHT22;8330;-33.858;151.184;2023-08-20T10:23:24;17.90;99.90
16441;DHT22;8330;-33.858;151.184;2023-08-20T10:25:55;17.80;99.90
16441;DHT22;8330;-33.858;151.184;2023-08-20T10:28:36;17.70;99.90
16441;DHT22;8330;-33.858;151.184;2023-08-20T10:31:08;17.80;99.90
16441;DHT22;8330;-33.858;151.184;2023-08-20T10:33:48;17.80;99.90
16441;DHT22;8330;-33.858;151.184;2023-08-20T10:36:21;17.70;99.90
16441;DHT22;8330;-33.858;151.184;2023-08-20T10:38:57;17.70;99.90
16441;DHT22;8330;-33.858;151.184;2023-08-20T10:41:33;17.70;99.90
16441;DHT22;8330;-33.858;151.184;2023-08-20T10:44:04;17.70;99.90
16441;DHT22;8330;-33.858;151.184;2023-08-20T10:46:50;17.70;99.90
16441;DHT22;8330;-33.858;151.184;2023-08-20T10:49:22;17.60;99.90
16441;DHT22;8330;-33.858;151.184;2023-08-20T10:51:53;17.60;99.90
16441;DHT22;8330;-33.858;151.184;2023-08-20T10:54:26;17.60;99.90
16441;DHT22;8330;-33.858;151.184;2023-08-20T10:56:59;17.60;99.90
16441;DHT22;8330;-33.858;151.184;2023-08-20T10:59:30;17.60;99.90
16441;DHT22;8330;-33.858;151.184;2023-08-20T11:02:02;17.60;99.90
16441;DHT22;8330;-33.858;151.184;2023-08-20T11:04:33;17.60;99.90
16441;DHT22;8330;-33.858;151.184;2023-08-20T11:07:05;17.60;99.90
16441;DHT22;8330;-33.858;151.184;2023-08-20T11:09:38;17.50;99.90
16441;DHT22;8330;-33.858;151.184;2023-08-20T11:12:09;17.50;99.90
16441;DHT22;8330;-33.858;151.184;2023-08-20T11:14:40;17.40;99.90
16441;DHT22;8330;-33.858;151.184;2023-08-20T11:17:11;17.40;99.90
16441;DHT22;8330;-33.858;151.184;2023-08-20T11:19:41;17.40;99.90
16441;DHT22;8330;-33.858;151.184;2023-08-20T11:22:12;17.30;99.90
16441;DHT22;8330;-33.858;151.184;2023-08-20T11:24:48;17.30;99.90
16441;DHT22;8330;-33.858;151.184;2023-08-20T11:27:19;17.20;99.90
16441;DHT22;8330;-33.858;151.184;2023-08-20T11:29:49;17.20;99.90
16441;DHT22;8330;-33.858;151.184;2023-08-20T11:32:21;17.20;99.90
16441;DHT22;8330;-33.858;151.184;2023-08-20T11:34:52;17.10;99.90
16441;DHT22;8330;-33.858;151.184;2023-08-20T11:37:23;17.10;99.90
16441;DHT22;8330;-33.858;151.184;2023-08-20T11:39:55;17.10;99.90
16441;DHT22;8330;-33.858;151.184;2023-08-20T11:42:27;17.10;99.90
16441;DHT22;8330;-33.858;151.184;2023-08-20T11:44:58;17.00;99.90
16441;DHT22;8330;-33.858;151.184;2023-08-20T11:47:29;17.00;99.90
16441;DHT22;8330;-33.858;151.184;2023-08-20T11:50:06;17.00;99.90
16441;DHT22;8330;-33.858;151.184;2023-08-20T11:52:37;17.00;99.90
16441;DHT22;8330;-33.858;151.184;2023-08-20T11:55:11;17.00;99.90
16441;DHT22;8330;-33.858;151.184;2023-08-20T11:57:42;16.90;99.90
16441;DHT22;8330;-33.858;151.184;2023-08-20T12:00:25;16.90;99.90
16441;DHT22;8330;-33.858;151.184;2023-08-20T12:02:57;16.90;99.90
16441;DHT22;8330;-33.858;151.184;2023-08-20T12:05:31;16.90;99.90
16441;DHT22;8330;-33.858;151.184;2023-08-20T12:08:02;16.80;99.90
16441;DHT22;8330;-33.858;151.184;2023-08-20T12:10:35;16.80;99.90
16441;DHT22;8330;-33.858;151.184;2023-08-20T12:13:12;16.80;99.90
16441;DHT22;8330;-33.858;151.184;2023-08-20T12:15:43;16.90;99.90
16441;DHT22;8330;-33.858;151.184;2023-08-20T12:18:13;16.80;99.90
16441;DHT22;8330;-33.858;151.184;2023-08-20T12:20:44;16.90;99.90
16441;DHT22;8330;-33.858;151.184;2023-08-20T12:23:15;16.90;99.90
16441;DHT22;8330;-33.858;151.184;2023-08-20T12:25:51;16.80;99.90
16441;DHT22;8330;-33.858;151.184;2023-08-20T12:28:22;16.90;99.90
16441;DHT22;8330;-33.858;151.184;2023-08-20T12:30:54;16.90;99.90
16441;DHT22;8330;-33.858;151.184;2023-08-20T12:33:24;16.90;99.90
16441;DHT22;8330;-33.858;151.184;2023-08-20T12:35:56;16.90;99.90
16441;DHT22;8330;-33.858;151.184;2023-08-20T12:38:27;16.90;99.90
16441;DHT22;8330;-33.858;151.184;2023-08-20T12:41:03;17.00;99.90
16441;DHT22;8330;-33.858;151.184;2023-08-20T12:43:34;17.00;99.90
16441;DHT22;8330;-33.858;151.184;2023-08-20T12:46:04;17.00;99.90
16441;DHT22;8330;-33.858;151.184;2023-08-20T12:48:35;17.00;99.90
16441;DHT22;8330;-33.858;151.184;2023-08-20T12:51:06;17.10;99.90
16441;DHT22;8330;-33.858;151.184;2023-08-20T12:53:40;17.00;99.90
16441;DHT22;8330;-33.858;151.184;2023-08-20T12:56:13;17.00;99.90
16441;DHT22;8330;-33.858;151.184;2023-08-20T12:58:44;17.00;99.90
16441;DHT22;8330;-33.858;151.184;2023-08-20T13:01:14;17.00;99.90
16441;DHT22;8330;-33.858;151.184;2023-08-20T13:03:47;17.00;99.90
16441;DHT22;8330;-33.858;151.184;2023-08-20T13:06:18;17.00;99.90
16441;DHT22;8330;-33.858;151.184;2023-08-20T13:08:49;17.00;99.90
16441;DHT22;8330;-33.858;151.184;2023-08-20T13:11:23;17.00;99.90
16441;DHT22;8330;-33.858;151.184;2023-08-20T13:13:55;17.00;99.90
16441;DHT22;8330;-33.858;151.184;2023-08-20T13:16:27;17.00;99.90
16441;DHT22;8330;-33.858;151.184;2023-08-20T13:18:58;17.00;99.90
16441;DHT22;8330;-33.858;151.184;2023-08-20T13:21:28;17.00;99.90
16441;DHT22;8330;-33.858;151.184;2023-08-20T13:23:59;17.00;99.90
16441;DHT22;8330;-33.858;151.184;2023-08-20T13:26:32;17.00;99.90
16441;DHT22;8330;-33.858;151.184;2023-08-20T13:29:03;17.00;99.90
16441;DHT22;8330;-33.858;151.184;2023-08-20T13:31:34;17.00;99.90
16441;DHT22;8330;-33.858;151.184;2023-08-20T13:34:06;17.00;99.90
16441;DHT22;8330;-33.858;151.184;2023-08-20T13:36:36;17.00;99.90
16441;DHT22;8330;-33.858;151.184;2023-08-20T13:39:07;17.00;99.90
16441;DHT22;8330;-33.858;151.184;2023-08-20T13:41:44;16.90;99.90
16441;DHT22;8330;-33.858;151.184;2023-08-20T13:44:15;16.90;99.90
16441;DHT22;8330;-33.858;151.184;2023-08-20T13:46:45;16.90;99.90
16441;DHT22;8330;-33.858;151.184;2023-08-20T13:49:16;16.90;99.90
16441;DHT22;8330;-33.858;151.184;2023-08-20T13:51:47;16.90;99.90
16441;DHT22;8330;-33.858;151.184;2023-08-20T13:54:18;16.80;99.90
16441;DHT22;8330;-33.858;151.184;2023-08-20T13:56:52;16.80;99.90
16441;DHT22;8330;-33.858;151.184;2023-08-20T13:59:22;16.80;99.90
16441;DHT22;8330;-33.858;151.184;2023-08-20T14:01:53;16.90;99.90
16441;DHT22;8330;-33.858;151.184;2023-08-20T14:04:24;16.80;99.90
16441;DHT22;8330;-33.858;151.184;2023-08-20T14:06:55;16.80;99.90
16441;DHT22;8330;-33.858;151.184;2023-08-20T14:09:26;16.80;99.90
16441;DHT22;8330;-33.858;151.184;2023-08-20T14:12:00;16.70;99.90
16441;DHT22;8330;-33.858;151.184;2023-08-20T14:14:31;16.80;99.90
16441;DHT22;8330;-33.858;151.184;2023-08-20T14:17:02;16.80;99.90
16441;DHT22;8330;-33.858;151.184;2023-08-20T14:19:32;16.80;99.90
16441;DHT22;8330;-33.858;151.184;2023-08-20T14:22:03;16.80;99.90
16441;DHT22;8330;-33.858;151.184;2023-08-20T14:24:34;16.80;99.90
16441;DHT22;8330;-33.858;151.184;2023-08-20T14:27:07;16.80;99.90
16441;DHT22;8330;-33.858;151.184;2023-08-20T14:29:38;16.90;99.90
16441;DHT22;8330;-33.858;151.184;2023-08-20T14:32:09;16.90;99.90
16441;DHT22;8330;-33.858;151.184;2023-08-20T14:34:39;16.80;99.90
16441;DHT22;8330;-33.858;151.184;2023-08-20T14:37:10;16.90;99.90
16441;DHT22;8330;-33.858;151.184;2023-08-20T14:39:41;16.90;99.90
16441;DHT22;8330;-33.858;151.184;2023-08-20T14:42:14;16.90;99.90
16441;DHT22;8330;-33.858;151.184;2023-08-20T14:44:45;16.90;99.90
16441;DHT22;8330;-33.858;151.184;2023-08-20T14:47:15;16.90;99.90
16441;DHT22;8330;-33.858;151.184;2023-08-20T14:49:59;16.90;99.90
16441;DHT22;8330;-33.858;151.184;2023-08-20T14:52:31;16.90;99.90
16441;DHT22;8330;-33.858;151.184;2023-08-20T14:55:02;17.00;99.90
16441;DHT22;8330;-33.858;151.184;2023-08-20T14:57:37;17.00;99.90
16441;DHT22;8330;-33.858;151.184;2023-08-20T15:00:09;17.00;99.90
16441;DHT22;8330;-33.858;151.184;2023-08-20T15:02:41;17.00;99.90
16441;DHT22;8330;-33.858;151.184;2023-08-20T15:05:15;17.00;99.90
16441;DHT22;8330;-33.858;151.184;2023-08-20T15:07:45;16.90;99.90
16441;DHT22;8330;-33.858;151.184;2023-08-20T15:10:16;16.90;99.90
16441;DHT22;8330;-33.858;151.184;2023-08-20T15:12:51;16.90;99.90
16441;DHT22;8330;-33.858;151.184;2023-08-20T15:15:22;16.80;99.90
16441;DHT22;8330;-33.858;151.184;2023-08-20T15:17:53;16.80;99.90
16441;DHT22;8330;-33.858;151.184;2023-08-20T15:20:24;16.80;99.90
16441;DHT22;8330;-33.858;151.184;2023-08-20T15:22:55;16.70;99.90
16441;DHT22;8330;-33.858;151.184;2023-08-20T15:25:25;16.70;99.90
16441;DHT22;8330;-33.858;151.184;2023-08-20T15:27:58;16.70;99.90
16441;DHT22;8330;-33.858;151.184;2023-08-20T15:30:31;16.70;99.90
16441;DHT22;8330;-33.858;151.184;2023-08-20T15:33:02;16.70;99.90
16441;DHT22;8330;-33.858;151.184;2023-08-20T15:35:33;16.60;99.90
16441;DHT22;8330;-33.858;151.184;2023-08-20T15:38:03;16.60;99.90